Time;durP1;ratioP1;P1;durP2;ratioP2;P2;SDS_P1;SDS_P2;PMS_P1;PMS_P2;Temp;Humidity;BMP_temperature;BMP_pressure;BME280_temperature;BME280_humidity;BME280_pressure;Samples;Min_cycle;Max_cycle;Signal;HPM_P1;HPM_P2
2021/11/17 02:26:40;;;;;;;15.00;5.83;;;;;;;-2.44;69.03;102466.82;1926315;74;21075;-59
2021/11/17 02:29:24;;;;;;;21.57;7.03;;;;;;;-2.45;69.10;102465.08;1926238;74;21035;-60
2021/11/17 02:32:27;;;;;;;16.65;7.72;;;;;;;-2.46;69.21;102460.72;1925526;74;21449;-60
2021/11/17 02:35:05;;;;;;;21.00;6.47;;;;;;;-2.46;69.21;102460.72;1856227;77;21549;-59
2021/11/17 02:37:49;;;;;;;14.45;6.47;;;;;;;-2.44;68.76;102458.21;1908062;74;21527;-59
2021/11/17 02:40:37;;;;;;;14.50;7.08;;;;;;;-2.50;68.86;102454.97;1926533;74;21042;-60
2021/11/17 02:43:15;;;;;;;17.70;6.42;;;;;;;-2.59;69.17;102453.29;1925447;74;21574;-60
2021/11/17 02:45:52;;;;;;;11.45;6.62;;;;;;;-2.60;68.95;102455.38;1925571;74;21042;-60
2021/11/17 02:48:43;;;;;;;15.32;6.53;;;;;;;-2.58;68.83;102458.94;1925966;74;21098;-59
2021/11/17 02:51:36;;;;;;;12.00;5.92;;;;;;;-2.60;68.99;102454.09;1924427;74;21082;-62
2021/11/17 02:54:13;;;;;;;9.28;6.00;;;;;;;-2.70;68.77;102439.06;1924062;74;21042;-61
2021/11/17 02:56:47;;;;;;;17.87;7.00;;;;;;;-2.67;69.00;102443.03;1926372;74;21086;-61
2021/11/17 02:59:24;;;;;;;15.65;6.08;;;;;;;-2.72;69.04;102451.88;1926209;74;21034;-62
2021/11/17 03:01:56;;;;;;;16.15;5.12;;;;;;;-2.73;69.26;102451.39;1926209;74;21078;-62
2021/11/17 03:04:56;;;;;;;23.05;6.85;;;;;;;-2.72;69.10;102448.89;1910421;74;21091;-61
2021/11/17 03:07:52;;;;;;;12.90;6.20;;;;;;;-2.70;69.12;102438.64;1900348;75;21439;-63
2021/11/17 03:10:43;;;;;;;12.05;5.58;;;;;;;-2.70;69.00;102446.80;1900455;75;21137;-62
2021/11/17 03:13:29;;;;;;;23.32;6.90;;;;;;;-2.70;68.85;102442.92;1900116;75;21087;-62
2021/11/17 03:16:07;;;;;;;11.93;4.62;;;;;;;-2.72;68.93;102429.55;1900318;75;21466;-62
2021/11/17 03:18:50;;;;;;;16.65;5.67;;;;;;;-2.72;68.81;102446.30;1900247;75;21109;-62
2021/11/17 03:21:27;;;;;;;12.30;5.62;;;;;;;-2.73;68.71;102443.66;1901002;75;21083;-61
2021/11/17 03:24:24;;;;;;;13.98;6.30;;;;;;;-2.75;68.69;102442.72;1900852;75;21470;-61
2021/11/17 03:27:24;;;;;;;18.17;5.10;;;;;;;-2.78;68.68;102451.21;1901013;75;21011;-62
2021/11/17 03:30:02;;;;;;;19.67;6.58;;;;;;;-2.77;68.62;102442.64;1900885;75;21533;-62
2021/11/17 03:32:47;;;;;;;17.77;6.92;;;;;;;-2.83;68.71;102438.52;1900881;75;21529;-62
2021/11/17 03:35:45;;;;;;;14.53;6.30;;;;;;;-2.85;69.05;102443.16;1901045;75;21052;-62
2021/11/17 03:38:19;;;;;;;13.30;6.47;;;;;;;-2.85;68.86;102434.13;1838879;77;21129;-59
2021/11/17 03:41:06;;;;;;;19.23;6.87;;;;;;;-2.94;69.15;102424.30;1850078;77;21039;-60
2021/11/17 03:43:55;;;;;;;15.70;6.70;;;;;;;-2.94;69.15;102424.30;1828132;77;21046;-60
2021/11/17 03:46:36;;;;;;;24.30;8.10;;;;;;;-2.95;69.05;102427.29;1850217;77;21054;-62
2021/11/17 03:49:27;;;;;;;14.58;6.83;;;;;;;-2.97;69.26;102433.17;1850030;77;21144;-62
2021/11/17 03:52:10;;;;;;;27.55;7.67;;;;;;;-3.03;69.66;102434.20;1849565;77;21081;-62
2021/11/17 03:54:43;;;;;;;16.32;7.50;;;;;;;-3.07;69.65;102433.60;1823577;77;21137;-63
2021/11/17 03:57:24;;;;;;;19.20;7.47;;;;;;;-3.09;69.50;102421.33;1850123;77;21082;-62
2021/11/17 04:00:04;;;;;;;17.20;8.18;;;;;;;-3.13;69.49;102421.33;1850172;77;21469;-63
2021/11/17 04:02:47;;;;;;;15.58;6.92;;;;;;;-3.18;69.92;102424.98;1850341;77;21473;-63
2021/11/17 04:05:37;;;;;;;21.62;7.08;;;;;;;-3.19;69.80;102423.23;1849715;77;21066;-63
2021/11/17 04:08:14;;;;;;;14.23;5.40;;;;;;;-3.25;69.98;102420.36;1850037;77;21078;-63
2021/11/17 04:10:49;;;;;;;15.63;7.35;;;;;;;-3.25;69.94;102425.52;1849506;77;21086;-63
2021/11/17 04:13:23;;;;;;;15.75;8.35;;;;;;;-3.19;69.78;102429.67;1849679;77;21136;-63
2021/11/17 04:16:10;;;;;;;20.08;8.10;;;;;;;-3.19;69.84;102420.66;1850225;77;21050;-63
2021/11/17 04:18:44;;;;;;;19.17;8.15;;;;;;;-3.15;69.85;102426.41;1850144;77;21054;-63
2021/11/17 04:21:37;;;;;;;20.00;9.40;;;;;;;-3.15;69.99;102414.81;1848941;77;21156;-63
2021/11/17 04:24:18;;;;;;;18.50;8.73;;;;;;;-3.15;70.04;102416.52;1850103;77;21171;-62
2021/11/17 04:27:09;;;;;;;21.35;10.00;;;;;;;-3.14;70.01;102434.59;1849329;77;21086;-63
2021/11/17 04:29:43;;;;;;;26.97;14.15;;;;;;;-3.08;69.81;102424.09;1850115;77;21567;-62
2021/11/17 04:32:23;;;;;;;18.37;9.73;;;;;;;-3.04;69.65;102433.71;1849433;77;21082;-62
2021/11/17 04:35:30;;;;;;;19.05;8.83;;;;;;;-3.01;69.54;102433.86;1849523;77;21061;-63
2021/11/17 04:38:36;;;;;;;12.37;7.05;;;;;;;-3.00;69.54;102425.33;1849596;77;21066;-62
2021/11/17 04:41:14;;;;;;;19.50;6.97;;;;;;;-3.00;69.54;102425.33;1850232;77;21046;-62
2021/11/17 04:43:54;;;;;;;16.65;7.97;;;;;;;-2.96;69.72;102424.64;1849382;77;21210;-62
2021/11/17 04:46:29;;;;;;;18.32;7.40;;;;;;;-2.96;69.72;102424.64;1849741;77;21058;-62
2021/11/17 04:49:24;;;;;;;20.92;7.67;;;;;;;-2.91;69.67;102428.30;1850090;77;21124;-62
2021/11/17 04:52:11;;;;;;;15.08;6.37;;;;;;;-2.70;70.36;102422.30;1849330;77;21058;-62
2021/11/17 04:55:03;;;;;;;17.35;5.12;;;;;;;-2.70;70.36;102422.30;1850097;77;21121;-62
2021/11/17 04:57:51;;;;;;;20.90;9.50;;;;;;;-2.45;69.78;102427.67;1817354;79;21078;-62
2021/11/17 05:00:35;;;;;;;20.23;8.58;;;;;;;-2.27;69.72;102429.23;1817416;79;22068;-62
2021/11/17 05:03:21;;;;;;;15.93;8.53;;;;;;;-2.07;69.66;102433.48;1836290;77;21082;-62
2021/11/17 05:05:55;;;;;;;17.55;8.20;;;;;;;-1.74;69.61;102434.35;1817466;79;21105;-62
2021/11/17 05:08:30;;;;;;;12.25;8.23;;;;;;;-1.44;69.50;102428.59;1840098;77;21155;-62
2021/11/17 05:11:22;;;;;;;16.95;8.03;;;;;;;-1.11;69.34;102426.78;1850049;77;21089;-62
2021/11/17 05:14:02;;;;;;;17.37;7.22;;;;;;;-0.74;69.07;102422.91;1849648;76;21114;-62
2021/11/17 05:16:43;;;;;;;15.75;7.78;;;;;;;-0.37;68.41;102429.31;1849298;77;21559;-62
2021/11/17 05:19:26;;;;;;;16.97;7.35;;;;;;;-0.15;67.54;102435.66;1849770;77;21023;-62
2021/11/17 05:22:07;;;;;;;16.32;8.03;;;;;;;0.06;67.18;102432.02;1850083;77;21090;-62
2021/11/17 05:24:54;;;;;;;21.23;9.05;;;;;;;0.46;66.59;102426.73;1849738;77;21058;-62
2021/11/17 05:27:41;;;;;;;19.27;9.18;;;;;;;0.80;65.59;102419.52;1849732;77;21606;-62
2021/11/17 05:30:29;;;;;;;19.12;8.18;;;;;;;1.20;65.10;102419.72;1850264;77;21196;-62
2021/11/17 05:33:04;;;;;;;23.73;8.83;;;;;;;1.68;63.70;102414.92;1849619;77;21540;-62
2021/11/17 05:35:50;;;;;;;15.63;7.85;;;;;;;2.21;62.50;102415.70;1849976;77;21194;-63
2021/11/17 05:38:22;;;;;;;15.23;7.60;;;;;;;2.69;62.02;102410.22;1832270;77;21105;-62
2021/11/17 05:41:02;;;;;;;20.97;7.87;;;;;;;3.35;61.66;102408.87;1850336;77;21191;-62
2021/11/17 05:43:58;;;;;;;22.25;7.90;;;;;;;3.94;60.83;102407.22;1850172;77;21626;-62
2021/11/17 05:46:39;;;;;;;17.62;7.42;;;;;;;4.58;59.93;102408.55;1849655;77;21058;-62
2021/11/17 05:49:25;;;;;;;10.65;6.15;;;;;;;5.13;59.14;102411.79;1849720;77;21469;-62
2021/11/17 05:52:00;;;;;;;15.85;7.55;;;;;;;5.64;58.75;102413.55;1850234;77;21014;-62
2021/11/17 05:54:31;;;;;;;19.98;7.78;;;;;;;6.12;58.13;102413.52;1850210;77;21560;-62
2021/11/17 05:57:21;;;;;;;16.77;7.55;;;;;;;6.47;57.05;102407.58;1850146;77;21168;-62
2021/11/17 06:00:03;;;;;;;14.68;7.45;;;;;;;6.75;56.34;102419.06;1850428;77;21457;-62
2021/11/17 06:02:50;;;;;;;17.65;8.23;;;;;;;7.19;55.37;102412.17;1850187;77;21555;-64
2021/11/17 06:05:17;;;;;;;16.97;10.38;;;;;;;7.47;55.13;102414.83;1849756;77;21555;-62
2021/11/17 06:07:44;;;;;;;16.20;7.80;;;;;;;7.87;54.05;102409.59;1850234;77;21046;-59
2021/11/17 06:10:28;;;;;;;18.17;9.60;;;;;;;8.24;53.11;102401.65;1850221;77;21516;-59
2021/11/17 06:12:57;;;;;;;14.75;6.78;;;;;;;8.87;51.54;102410.20;1850357;77;21116;-62
2021/11/17 06:15:27;;;;;;;19.65;7.08;;;;;;;8.87;51.54;102410.20;1850223;77;21042;-59
2021/11/17 06:17:58;;;;;;;12.98;6.15;;;;;;;9.09;51.08;102400.86;1850225;77;21050;-59
2021/11/17 06:20:27;;;;;;;14.60;6.60;;;;;;;9.08;50.05;102395.19;1850338;77;21054;-61
2021/11/17 06:22:59;;;;;;;10.32;5.55;;;;;;;9.15;49.33;102392.95;1850170;77;21062;-61
2021/11/17 06:25:28;;;;;;;13.58;5.65;;;;;;;9.33;49.12;102401.58;1848728;77;21082;-61
2021/11/17 06:28:02;;;;;;;13.32;6.70;;;;;;;9.68;48.37;102403.06;1850211;77;21560;-61
2021/11/17 06:30:34;;;;;;;17.12;6.83;;;;;;;9.94;47.80;102397.13;1850441;77;21082;-61
2021/11/17 06:33:04;;;;;;;15.43;6.05;;;;;;;10.21;47.33;102391.99;1850433;77;21108;-61
2021/11/17 06:35:35;;;;;;;11.28;6.47;;;;;;;10.43;46.75;102388.70;1850195;77;21054;-61
2021/11/17 06:38:05;;;;;;;9.98;5.90;;;;;;;10.42;46.65;102383.03;1847713;77;21147;-62
2021/11/17 06:40:35;;;;;;;11.43;6.90;;;;;;;10.55;46.22;102384.17;1840866;78;21043;-61
2021/11/17 06:43:06;;;;;;;11.33;5.20;;;;;;;10.75;45.60;102382.17;1840822;78;21051;-61
2021/11/17 06:45:37;;;;;;;12.80;5.92;;;;;;;11.01;45.26;102379.59;1840911;78;21047;-61
2021/11/17 06:48:07;;;;;;;10.23;5.05;;;;;;;10.97;44.75;102381.85;1840753;78;21136;-61
2021/11/17 06:50:39;;;;;;;9.30;5.28;;;;;;;11.09;44.33;102379.05;1840674;78;21050;-61
2021/11/17 06:53:08;;;;;;;8.30;4.78;;;;;;;11.29;44.29;102387.11;1840753;78;21015;-61
2021/11/17 06:55:37;;;;;;;9.58;6.15;;;;;;;11.55;43.94;102384.91;1840975;78;21434;-61
2021/11/17 06:58:06;;;;;;;12.07;5.30;;;;;;;11.74;43.42;102380.62;1840842;78;21547;-61
2021/11/17 07:00:38;;;;;;;10.60;5.45;;;;;;;12.02;42.87;102391.58;1840724;78;21133;-60
2021/11/17 07:03:07;;;;;;;8.43;5.25;;;;;;;12.26;42.40;102386.27;1840640;78;21588;-61
2021/11/17 07:05:35;;;;;;;14.50;6.17;;;;;;;12.34;41.75;102380.86;1840734;78;21058;-61
2021/11/17 07:08:04;;;;;;;15.90;5.50;;;;;;;12.39;41.12;102382.08;1840704;78;21197;-61
2021/11/17 07:10:36;;;;;;;17.98;6.20;;;;;;;12.56;40.93;102387.90;1840830;77;21058;-61
2021/11/17 07:13:06;;;;;;;15.50;6.15;;;;;;;12.92;40.69;102380.05;1840906;78;21078;-61
2021/11/17 07:15:36;;;;;;;10.18;5.97;;;;;;;13.11;40.29;102380.06;1840605;78;21497;-61
2021/11/17 07:18:06;;;;;;;14.33;6.37;;;;;;;13.43;39.72;102381.55;1840743;78;21034;-61
2021/11/17 07:20:36;;;;;;;10.40;4.72;;;;;;;13.66;39.35;102378.30;1840759;78;21070;-61
2021/11/17 07:23:06;;;;;;;8.95;5.30;;;;;;;14.14;39.24;102377.02;1840846;78;21055;-61
2021/11/17 07:25:36;;;;;;;7.03;4.50;;;;;;;14.33;38.70;102385.31;1840753;78;21505;-61
2021/11/17 07:28:05;;;;;;;16.35;6.25;;;;;;;14.48;38.46;102384.42;1840655;78;21513;-61
2021/11/17 07:30:37;;;;;;;12.47;5.70;;;;;;;14.49;37.69;102376.87;1840731;78;21117;-61
2021/11/17 07:33:06;;;;;;;10.50;6.15;;;;;;;14.72;37.51;102382.00;1840671;78;21031;-61
2021/11/17 07:35:38;;;;;;;8.50;5.12;;;;;;;14.77;36.99;102375.22;1840693;78;21140;-61
2021/11/17 07:38:13;;;;;;;14.30;5.65;;;;;;;14.82;37.02;102378.60;1840854;78;21481;-61
2021/11/17 07:40:44;;;;;;;10.45;6.00;;;;;;;15.10;36.87;102373.75;1841008;77;21135;-61
2021/11/17 07:43:16;;;;;;;12.30;5.33;;;;;;;15.27;35.85;102370.11;1840736;78;21088;-61
2021/11/17 07:45:45;;;;;;;9.40;5.67;;;;;;;15.05;35.80;102364.64;1840718;78;21110;-61
2021/11/17 07:48:16;;;;;;;8.83;5.92;;;;;;;14.20;36.63;102369.79;1840704;78;21483;-61
2021/11/17 07:50:46;;;;;;;8.75;5.80;;;;;;;14.34;36.56;102381.77;1840716;78;21037;-61
2021/11/17 07:53:15;;;;;;;8.90;5.45;;;;;;;14.92;36.15;102366.80;1840613;78;21032;-61
2021/11/17 07:55:46;;;;;;;9.23;5.28;;;;;;;15.36;35.48;102369.81;1840640;78;21495;-61
2021/11/17 07:58:15;;;;;;;9.98;5.87;;;;;;;15.41;34.86;102370.97;1840611;78;21510;-60
2021/11/17 08:00:47;;;;;;;10.38;6.08;;;;;;;15.41;34.69;102365.19;1840841;78;21471;-61
2021/11/17 08:03:19;;;;;;;9.03;5.43;;;;;;;15.69;34.35;102360.27;1840979;78;21028;-61
2021/11/17 08:05:51;;;;;;;13.72;6.10;;;;;;;16.18;34.24;102361.21;1840672;78;21126;-61
2021/11/17 08:08:21;;;;;;;10.75;5.80;;;;;;;16.11;33.68;102353.05;1840599;78;21142;-61
2021/11/17 08:10:52;;;;;;;10.08;5.87;;;;;;;16.49;33.57;102361.40;1840726;78;21053;-61
2021/11/17 08:13:20;;;;;;;17.60;9.05;;;;;;;16.49;33.00;102365.39;1840598;78;21503;-61
2021/11/17 08:15:49;;;;;;;26.33;12.63;;;;;;;16.39;32.87;102361.33;1840591;78;21119;-61
2021/11/17 08:18:18;;;;;;;14.98;6.70;;;;;;;16.33;32.69;102358.45;1840550;78;21220;-61
2021/11/17 08:20:46;;;;;;;10.48;6.55;;;;;;;16.37;32.55;102355.21;1840569;78;21024;-60
2021/11/17 08:23:15;;;;;;;12.78;6.35;;;;;;;16.44;32.43;102349.21;1840664;78;21053;-61
2021/11/17 08:25:46;;;;;;;9.43;5.22;;;;;;;16.55;32.11;102353.18;1840583;78;21060;-61
2021/11/17 08:28:15;;;;;;;10.65;5.90;;;;;;;16.11;31.86;102353.05;1840683;78;21072;-61
2021/11/17 08:30:45;;;;;;;15.40;7.22;;;;;;;16.23;32.26;102344.22;1840499;78;21115;-62
2021/11/17 08:33:15;;;;;;;11.22;5.78;;;;;;;16.52;32.15;102341.31;1840568;78;21122;-61
2021/11/17 08:35:45;;;;;;;10.95;5.60;;;;;;;16.65;31.87;102344.84;1840590;78;21577;-62
2021/11/17 08:38:17;;;;;;;9.73;5.58;;;;;;;16.79;31.73;102346.03;1840518;78;21142;-62
2021/11/17 08:40:49;;;;;;;16.95;7.85;;;;;;;16.78;31.33;102340.77;1847125;77;21087;-62
2021/11/17 08:43:19;;;;;;;12.23;5.55;;;;;;;16.52;30.92;102333.34;1849771;77;21213;-62
2021/11/17 08:45:49;;;;;;;26.82;11.97;;;;;;;16.31;31.15;102339.50;1849903;77;21118;-62
2021/11/17 08:48:20;;;;;;;16.35;8.25;;;;;;;16.51;31.27;102335.62;1849874;77;21118;-62
2021/11/17 08:50:51;;;;;;;11.43;6.42;;;;;;;16.91;31.06;102325.21;1849964;77;21040;-62
2021/11/17 08:53:20;;;;;;;12.40;6.87;;;;;;;16.82;30.67;102320.23;1849973;77;21130;-62
2021/11/17 08:55:49;;;;;;;9.55;4.42;;;;;;;17.00;30.77;102322.66;1849835;77;21506;-62
2021/11/17 08:58:20;;;;;;;15.35;6.70;;;;;;;17.33;30.36;102313.25;1849850;77;21526;-63
2021/11/17 09:00:49;;;;;;;14.00;6.05;;;;;;;17.48;30.18;102313.05;1849997;77;21032;-62
2021/11/17 09:03:19;;;;;;;14.35;7.72;;;;;;;17.97;29.54;102307.41;1850011;77;21122;-62
2021/11/17 09:05:51;;;;;;;15.10;7.00;;;;;;;17.69;29.50;102304.61;1849851;77;21072;-63
2021/11/17 09:08:21;;;;;;;13.55;6.90;;;;;;;17.52;29.99;102305.80;1848034;77;21454;-62
2021/11/17 09:10:53;;;;;;;7.85;4.65;;;;;;;17.71;29.83;102301.41;1849930;77;21048;-63
2021/11/17 09:13:22;;;;;;;13.83;7.03;;;;;;;17.65;29.73;102299.03;1849940;77;21096;-62
2021/11/17 09:15:53;;;;;;;11.57;5.72;;;;;;;17.81;29.79;102300.52;1849804;77;21063;-62
2021/11/17 09:18:25;;;;;;;11.15;6.17;;;;;;;18.21;29.46;102297.89;1849838;77;21130;-62
2021/11/17 09:20:54;;;;;;;12.90;7.00;;;;;;;18.52;29.34;102286.17;1849835;77;21044;-62
2021/11/17 09:23:26;;;;;;;19.10;8.33;;;;;;;18.85;28.90;102290.84;1849787;77;21127;-62
2021/11/17 09:25:55;;;;;;;9.03;5.12;;;;;;;19.02;28.98;102286.47;1849836;77;21048;-62
2021/11/17 09:28:26;;;;;;;12.30;6.47;;;;;;;19.12;28.78;102281.52;1849924;77;21056;-62
2021/11/17 09:30:55;;;;;;;10.72;5.72;;;;;;;18.86;28.73;102279.69;1849880;77;21052;-64
2021/11/17 09:33:27;;;;;;;16.65;6.58;;;;;;;19.09;28.64;102274.55;1849763;77;21095;-64
2021/11/17 09:35:56;;;;;;;9.38;5.78;;;;;;;19.21;28.26;102273.89;1849793;77;21112;-64
2021/11/17 09:38:25;;;;;;;9.60;5.95;;;;;;;19.44;28.03;102274.51;1849813;77;21577;-64
2021/11/17 09:40:56;;;;;;;11.80;7.10;;;;;;;19.57;27.99;102270.72;1856131;77;21556;-64
2021/11/17 09:43:31;;;;;;;10.45;5.72;;;;;;;19.60;27.89;102266.08;1860749;76;21095;-64
2021/11/17 09:46:01;;;;;;;9.90;5.50;;;;;;;19.26;27.98;102265.19;1859135;77;21148;-64
2021/11/17 09:48:33;;;;;;;12.13;6.70;;;;;;;18.94;28.42;102263.28;1859138;77;21078;-64
2021/11/17 09:51:04;;;;;;;11.28;5.95;;;;;;;18.87;28.28;102262.27;1858745;77;21053;-64
2021/11/17 09:53:42;;;;;;;10.23;6.35;;;;;;;18.61;28.44;102261.30;1859102;77;21101;-64
2021/11/17 09:56:13;;;;;;;12.00;7.10;;;;;;;18.85;28.38;102262.81;1858517;77;21567;-64
2021/11/17 09:58:46;;;;;;;10.95;5.70;;;;;;;19.13;28.17;102257.42;1858962;77;21116;-64
2021/11/17 10:01:18;;;;;;;12.23;5.95;;;;;;;19.33;28.11;102256.39;1859335;77;21046;-64
2021/11/17 10:04:12;;;;;;;10.78;6.60;;;;;;;19.02;28.21;102263.30;1859196;77;21046;-64
2021/11/17 10:07:15;;;;;;;12.07;7.05;;;;;;;19.13;28.17;102251.23;1800754;77;21489;-64
2021/11/17 10:09:44;;;;;;;10.60;6.37;;;;;;;19.37;28.12;102249.09;1853565;77;21022;-64
2021/11/17 10:14:48;;;;;;;14.80;7.80;;;;;;;19.13;28.14;102243.22;1859067;77;21019;-64
2021/11/17 10:17:40;;;;;;;18.40;8.68;;;;;;;19.24;28.23;102244.38;1858325;77;21435;-64
2021/11/17 10:20:21;;;;;;;14.70;8.48;;;;;;;18.93;28.32;102242.89;1859053;77;21049;-64
2021/11/17 10:23:08;;;;;;;14.28;8.03;;;;;;;18.73;28.46;102236.70;1859098;77;21508;-64
2021/11/17 10:25:58;;;;;;;17.67;6.25;;;;;;;18.59;28.74;102237.84;1859203;77;21093;-64
2021/11/17 10:28:35;;;;;;;14.78;7.15;;;;;;;18.33;28.81;102238.19;1858703;77;21054;-64
2021/11/17 10:31:25;;;;;;;11.73;6.33;;;;;;;18.24;28.97;102235.97;1858745;77;21571;-64
2021/11/17 10:34:12;;;;;;;11.53;7.70;;;;;;;18.23;29.07;102232.89;1859116;77;21101;-64
2021/11/17 10:36:49;;;;;;;12.28;6.22;;;;;;;18.05;29.11;102229.28;1859086;77;21120;-64
2021/11/17 10:42:23;;;;;;;13.32;7.90;;;;;;;17.44;29.68;102234.72;1848319;78;21661;-64
2021/11/17 10:45:01;;;;;;;16.30;7.70;;;;;;;17.38;29.77;102239.00;1848392;78;21054;-64
2021/11/17 10:47:45;;;;;;;16.82;8.38;;;;;;;17.57;29.74;102237.23;1848416;78;21047;-64
2021/11/17 10:50:22;;;;;;;15.40;7.97;;;;;;;17.30;29.71;102239.30;1848314;78;21137;-65
2021/11/17 10:53:16;;;;;;;17.27;9.85;;;;;;;17.01;30.04;102237.92;1848503;78;21074;-64
2021/11/17 10:55:48;;;;;;;19.45;10.23;;;;;;;17.02;30.27;102236.97;1846397;77;21558;-64
2021/11/17 10:58:20;;;;;;;21.10;9.50;;;;;;;17.35;30.06;102228.88;1848374;78;21501;-64
2021/11/17 11:00:51;;;;;;;28.60;11.28;;;;;;;17.35;30.21;102231.55;1848325;78;21168;-64
2021/11/17 11:03:22;;;;;;;20.57;10.18;;;;;;;16.97;30.84;102235.38;1847893;76;21046;-64
2021/11/17 11:05:54;;;;;;;43.40;17.60;;;;;;;16.31;31.72;102235.84;1848519;78;21112;-64
2021/11/17 11:08:34;;;;;;;23.75;11.28;;;;;;;16.04;32.03;102229.80;1848347;78;21010;-64
2021/11/17 11:11:04;;;;;;;42.23;18.35;;;;;;;16.11;31.69;102228.17;1848334;78;21067;-63
2021/11/17 11:13:49;;;;;;;35.75;15.08;;;;;;;15.88;31.82;102227.73;1848509;78;21051;-63
2021/11/17 11:16:26;;;;;;;85.97;33.23;;;;;;;16.00;31.91;102225.06;1848509;78;21104;-63
2021/11/17 11:19:13;;;;;;;138.90;53.28;;;;;;;15.74;32.28;102220.27;1848384;78;21042;-64
2021/11/17 11:21:50;;;;;;;115.30;45.90;;;;;;;15.48;32.77;102225.65;1847705;78;21164;-64
2021/11/17 11:24:37;;;;;;;107.58;42.35;;;;;;;15.42;33.04;102230.25;1848471;78;21059;-64
2021/11/17 11:27:12;;;;;;;98.47;39.05;;;;;;;15.17;33.45;102224.06;1848406;78;21136;-64
2021/11/17 11:29:44;;;;;;;82.12;30.80;;;;;;;14.77;34.00;102225.41;1848499;78;21030;-64
2021/11/17 11:32:21;;;;;;;74.90;30.30;;;;;;;14.37;34.54;102220.05;1847749;77;21054;-64
2021/11/17 11:35:03;;;;;;;119.75;47.88;;;;;;;14.19;34.93;102222.34;1846473;78;21073;-64
2021/11/17 11:37:37;;;;;;;153.47;69.25;;;;;;;14.03;35.16;102221.06;1848367;78;21055;-64
2021/11/17 11:40:14;;;;;;;81.55;29.67;;;;;;;13.84;35.66;102221.60;1848484;78;21500;-64
2021/11/17 11:43:10;;;;;;;79.87;29.35;;;;;;;13.84;35.78;102221.60;1848192;77;21497;-64
2021/11/17 11:45:42;;;;;;;77.95;29.32;;;;;;;13.69;36.05;102219.41;1848378;78;21572;-64
2021/11/17 11:48:29;;;;;;;91.22;34.23;;;;;;;13.58;36.33;102217.06;1848343;78;21023;-64
2021/11/17 11:51:03;;;;;;;136.82;55.33;;;;;;;13.42;36.51;102224.55;1848378;78;21082;-64
2021/11/17 11:53:56;;;;;;;125.67;45.17;;;;;;;13.35;36.68;102215.03;1848314;77;21560;-64
2021/11/17 11:56:48;;;;;;;159.52;61.75;;;;;;;13.12;37.04;102217.81;1848446;78;21082;-64
2021/11/17 11:59:19;;;;;;;104.55;39.42;;;;;;;12.84;37.51;102221.62;1848273;78;21575;-64
2021/11/17 12:01:48;;;;;;;86.20;30.25;;;;;;;12.07;38.68;102217.25;1848211;78;21532;-64
2021/11/17 12:04:25;;;;;;;67.60;23.85;;;;;;;11.23;39.95;102217.13;1848429;78;21152;-64
2021/11/17 12:06:57;;;;;;;88.45;29.50;;;;;;;10.53;41.06;102218.29;1848306;78;21023;-64
2021/11/17 12:09:32;;;;;;;91.22;32.03;;;;;;;10.05;41.95;102214.98;1847005;77;21051;-64
2021/11/17 12:12:01;;;;;;;91.25;32.80;;;;;;;9.72;42.66;102207.49;1848094;77;21570;-64
2021/11/17 12:14:36;;;;;;;78.25;28.05;;;;;;;9.46;43.08;102222.70;1847507;77;21543;-64
2021/11/17 12:17:06;;;;;;;75.57;25.45;;;;;;;9.34;43.44;102220.64;1847894;77;21051;-64
2021/11/17 12:19:41;;;;;;;69.87;24.20;;;;;;;9.18;43.94;102220.77;1848385;78;21039;-64
2021/11/17 12:22:12;;;;;;;70.12;24.72;;;;;;;9.10;44.15;102229.63;1848294;78;21133;-64
2021/11/17 12:24:44;;;;;;;72.27;27.55;;;;;;;8.96;44.39;102236.30;1848572;78;21087;-64
2021/11/17 12:27:18;;;;;;;68.78;24.80;;;;;;;8.86;44.65;102239.01;1847902;77;21086;-64
2021/11/17 12:29:49;;;;;;;55.08;22.32;;;;;;;8.74;45.03;102233.84;1848564;78;21055;-63
2021/11/17 12:32:33;;;;;;;74.62;28.20;;;;;;;8.54;45.48;102230.07;1848437;77;21023;-64
2021/11/17 12:35:16;;;;;;;80.90;28.27;;;;;;;8.43;45.81;102231.45;1848549;77;21055;-61
2021/11/17 12:37:57;;;;;;;56.65;19.73;;;;;;;8.31;46.07;102230.16;1848488;78;21062;-62
2021/11/17 12:40:50;;;;;;;56.70;20.35;;;;;;;8.23;46.34;102235.91;1848520;77;21082;-62
2021/11/17 12:43:46;;;;;;;72.08;26.42;;;;;;;8.10;46.63;102236.41;1848516;78;21094;-61
2021/11/17 12:46:32;;;;;;;47.67;19.07;;;;;;;7.96;46.98;102235.14;1847421;78;21090;-64
2021/11/17 12:49:07;;;;;;;52.45;18.07;;;;;;;7.90;47.14;102241.74;1848456;78;21121;-65
2021/11/17 12:51:39;;;;;;;50.55;20.68;;;;;;;7.82;47.20;102245.70;1848542;78;21043;-63
2021/11/17 12:54:13;;;;;;;57.08;21.77;;;;;;;7.74;47.38;102242.22;1847175;77;21533;-63
2021/11/17 12:56:45;;;;;;;57.67;21.00;;;;;;;7.66;47.58;102237.00;1848391;78;21525;-63
2021/11/17 12:59:19;;;;;;;52.78;19.40;;;;;;;7.59;47.83;102250.14;1848445;77;21058;-63
2021/11/17 13:01:54;;;;;;;52.80;19.02;;;;;;;7.53;48.02;102247.09;1847654;77;21035;-64
2021/11/17 13:04:31;;;;;;;62.05;19.90;;;;;;;7.48;48.13;102240.98;1848614;77;21048;-63
2021/11/17 13:07:03;;;;;;;50.05;17.98;;;;;;;7.40;48.50;102243.63;1847391;77;21059;-63
2021/11/17 13:09:46;;;;;;;59.60;19.50;;;;;;;7.31;48.65;102245.81;1848031;78;21461;-64
2021/11/17 13:12:35;;;;;;;40.83;16.17;;;;;;;7.27;48.72;102235.36;1848339;78;21051;-64
2021/11/17 13:15:10;;;;;;;40.63;15.30;;;;;;;7.21;48.79;102242.79;1817046;79;21121;-64
2021/11/17 13:17:46;;;;;;;34.35;14.50;;;;;;;7.12;48.99;102253.27;1858603;77;21108;-63
2021/11/17 13:20:17;;;;;;;46.35;15.23;;;;;;;7.02;49.28;102248.45;1816114;78;21031;-63
2021/11/17 13:22:58;;;;;;;36.88;14.05;;;;;;;6.92;49.66;102251.52;1865682;76;21039;-64
2021/11/17 13:25:53;;;;;;;34.08;14.53;;;;;;;6.83;49.77;102243.66;1876319;76;21038;-64
2021/11/17 13:28:43;;;;;;;38.08;14.30;;;;;;;6.74;50.06;102243.65;1839973;78;21643;-64
2021/11/17 13:31:33;;;;;;;44.67;15.25;;;;;;;6.66;50.17;102253.22;1882658;76;21062;-64
2021/11/17 13:34:08;;;;;;;35.23;14.80;;;;;;;6.54;50.40;102249.72;1815545;79;21474;-64
2021/11/17 13:36:40;;;;;;;48.28;16.65;;;;;;;6.50;50.40;102254.95;1858419;77;21054;-62
2021/11/17 13:39:09;;;;;;;51.15;18.80;;;;;;;6.44;50.63;102257.13;1816876;79;21058;-64
2021/11/17 13:41:41;;;;;;;48.60;20.23;;;;;;;6.36;50.75;102258.83;1859851;77;21038;-64
2021/11/17 13:44:11;;;;;;;58.05;19.57;;;;;;;6.31;50.78;102257.52;1860158;77;21066;-64
2021/11/17 13:46:58;;;;;;;61.53;22.80;;;;;;;6.26;50.84;102262.30;1860165;77;21159;-64
2021/11/17 13:49:28;;;;;;;65.35;22.65;;;;;;;6.18;50.95;102256.61;1859944;77;21124;-64
2021/11/17 13:51:58;;;;;;;56.33;21.30;;;;;;;6.12;51.12;102260.94;1860022;77;21043;-64
2021/11/17 13:54:27;;;;;;;63.68;21.85;;;;;;;6.04;51.20;102260.91;1860160;77;21112;-64
2021/11/17 13:56:56;;;;;;;62.23;24.70;;;;;;;5.95;51.36;102267.37;1860016;77;21043;-64
2021/11/17 13:59:25;;;;;;;59.55;21.85;;;;;;;5.89;51.51;102268.66;1860306;75;21046;-64
2021/11/17 14:01:56;;;;;;;61.80;22.70;;;;;;;5.83;51.56;102272.53;1859930;77;21034;-66
2021/11/17 14:04:25;;;;;;;75.28;24.35;;;;;;;5.76;51.68;102271.20;1860146;77;21046;-64
2021/11/17 14:06:56;;;;;;;79.07;25.88;;;;;;;5.69;51.76;102271.16;1860055;77;21010;-64
2021/11/17 14:09:26;;;;;;;75.67;26.68;;;;;;;5.64;51.88;102265.89;1860077;77;21062;-64
2021/11/17 14:11:57;;;;;;;72.65;27.90;;;;;;;5.58;51.91;102268.48;1860161;77;21045;-63
2021/11/17 14:14:26;;;;;;;82.70;31.70;;;;;;;5.52;52.04;102266.70;1859926;77;21502;-67
2021/11/17 14:16:54;;;;;;;80.80;28.87;;;;;;;5.47;52.17;102277.99;1860033;77;21477;-65
2021/11/17 14:19:23;;;;;;;85.32;32.33;;;;;;;5.39;52.23;102270.11;1860258;75;21054;-66
2021/11/17 14:21:52;;;;;;;90.75;34.00;;;;;;;5.30;52.34;102266.98;1860025;75;21481;-65
2021/11/17 14:24:21;;;;;;;100.00;36.40;;;;;;;5.22;52.48;102269.99;1860076;75;21168;-66
2021/11/17 14:26:52;;;;;;;94.45;33.58;;;;;;;5.16;52.53;102272.09;1859975;77;21136;-67
2021/11/17 14:29:32;;;;;;;101.27;37.03;;;;;;;5.10;52.62;102272.50;1860048;77;21190;-66
2021/11/17 14:32:03;;;;;;;93.82;36.45;;;;;;;5.03;52.78;102265.93;1860207;77;21658;-66